Latest Weather Observations for Yanakie

IDV60801

Issued at 5:35 pm EST Sunday 21 September 2014 (issued every 30 minutes, with the page automatically refreshed every 10 minutes)

About weather observations | Map of weather stations | Latest weather observations for VIC | Other Formats
Station Details ID: 085301 Name: YANAKIE Lat: -38.81 Lon: 146.19 Height: 13.3 m
Data from the previous 72 hours. | See also: Recent months at Yanakie
Date/Time
EST
Temp
°C
App
Temp
°C
Dew
Point
Rel
Hum
%
Delta-T
°C
Wind Press
QNH
hPa
Press
MSL
hPa
Rain
since 9 am
mm
Dir
 
Spd
km/h
Gust
km/h
Spd
kts
Gust
kts
21/05:30pm 12.3 9.0 8.0 75 2.1 SW 15 17 8 9 1029.9 1029.9 0.0
21/05:00pm 13.2 10.0 8.5 73 2.3 SW 15 19 8 10 1029.8 1029.8 0.0
21/04:30pm 13.8 10.3 8.6 71 2.6 SW 17 22 9 12 1029.9 1029.9 0.0
21/04:00pm 14.3 10.8 8.9 70 2.7 WSW 17 22 9 12 1029.9 1029.9 0.0
21/03:30pm 14.2 10.0 8.4 68 2.9 WSW 20 26 11 14 1029.9 1029.9 0.0
21/03:00pm 14.4 9.9 8.4 67 3.0 WSW 22 30 12 16 1029.9 1029.9 0.0
21/02:30pm 14.9 10.4 8.4 65 3.3 SW 22 28 12 15 1030.0 1030.0 0.0
21/02:00pm 15.2 10.8 9.1 67 3.1 SW 22 30 12 16 1030.0 1030.0 0.0
21/01:30pm 15.2 10.7 8.7 65 3.3 SW 22 30 12 16 1030.2 1030.2 0.0
21/01:00pm 15.3 11.0 9.2 67 3.1 SW 22 28 12 15 1030.4 1030.4 0.0
21/12:30pm 14.9 10.8 7.7 62 3.6 WSW 19 28 10 15 1030.7 1030.7 0.0
21/12:00pm 15.1 11.9 8.3 64 3.4 WSW 15 22 8 12 1031.0 1031.0 0.0
21/11:30am 14.4 10.5 7.2 62 3.5 WSW 17 24 9 13 1031.3 1031.3 0.0
21/11:00am 14.3 10.3 8.3 67 3.0 SW 19 22 10 12 1031.5 1031.5 0.0
21/10:30am 14.2 11.6 9.2 72 2.5 SW 13 19 7 10 1031.6 1031.6 0.0
21/10:00am 13.5 10.3 8.6 72 2.4 SW 15 19 8 10 1031.5 1031.5 0.0
21/09:30am 13.4 10.1 8.0 70 2.7 WSW 15 22 8 12 1031.4 1031.4 0.0
21/09:00am 13.0 9.7 7.9 71 2.5 W 15 19 8 10 1031.2 1031.2 0.0
21/08:30am 13.3 10.8 8.2 71 2.5 SW 11 15 6 8 1031.0 1031.0 0.0
21/08:00am 12.4 9.3 7.3 71 2.4 WSW 13 20 7 11 1030.8 1030.8 0.0
21/07:30am 11.9 8.3 6.8 71 2.4 SW 15 20 8 11 1030.7 1030.7 0.0
21/07:00am 11.5 7.9 6.8 73 2.2 SW 15 20 8 11 1030.4 1030.4 0.0
21/06:30am 11.1 7.8 6.5 73 2.2 WSW 13 20 7 11 1030.2 1030.2 0.0
21/06:00am 11.0 7.7 6.6 74 2.1 SW 13 19 7 10 1030.1 1030.1 0.0
21/05:30am 10.8 7.6 6.9 77 1.8 SW 13 15 7 8 1029.7 1029.7 0.0
21/05:00am 10.9 8.1 7.0 77 1.8 SSW 11 15 6 8 1029.4 1029.4 0.0
21/04:30am 10.9 8.1 6.8 76 1.9 WSW 11 15 6 8 1029.2 1029.2 0.0
21/04:00am 10.9 7.6 6.6 75 2.0 WSW 13 19 7 10 1029.1 1029.1 0.0
21/03:30am 10.7 7.0 6.1 73 2.1 SW 15 22 8 12 1029.1 1029.1 0.0
21/03:00am 11.0 7.5 7.3 78 1.8 SSW 15 20 8 11 1029.0 1029.0 0.0
21/02:30am 10.9 6.4 6.8 76 1.9 SW 20 28 11 15 1029.2 1029.2 0.0
21/02:00am 10.9 7.0 7.0 77 1.8 SSW 17 20 9 11 1029.3 1029.3 0.0
21/01:30am 11.3 7.5 7.4 77 1.9 SW 17 24 9 13 1029.5 1029.5 0.0
21/01:00am 11.1 7.2 7.2 77 1.8 SW 17 20 9 11 1029.6 1029.6 0.0
21/12:30am 10.9 7.0 7.0 77 1.9 SW 17 22 9 12 1029.7 1029.7 0.0
21/12:00am 10.8 7.0 7.5 80 1.6 SW 17 20 9 11 1029.6 1029.6 0.0
 
Date/Time
EST
Temp
°C
App
Temp
°C
Dew
Point
Rel
Hum
%
Delta-T
°C
Wind Press
QNH
hPa
Press
MSL
hPa
Rain
since 9 am
mm
Dir
 
Spd
km/h
Gust
km/h
Spd
kts
Gust
kts
20/11:30pm 10.0 5.6 6.7 80 1.5 SW 19 24 10 13 1029.5 1029.5 0.0
20/11:00pm 9.8 6.2 6.9 82 1.4 SW 15 19 8 10 1029.7 1029.7 0.0
20/10:30pm 9.9 6.0 7.2 83 1.3 SW 17 20 9 11 1029.7 1029.7 0.0
20/10:00pm 10.1 6.6 7.3 83 1.3 WSW 15 20 8 11 1029.5 1029.5 0.0
20/09:30pm 10.5 8.7 8.1 85 1.2 W 7 11 4 6 1029.6 1029.6 0.0
20/09:00pm 10.4 7.4 7.8 84 1.2 WSW 13 17 7 9 1029.5 1029.5 0.0
20/08:30pm 10.1 6.6 7.2 82 1.4 SW 15 22 8 12 1029.6 1029.6 0.0
20/08:00pm 11.1 7.5 8.3 83 1.4 SW 17 22 9 12 1029.7 1029.7 0.0
20/07:30pm 11.2 7.8 7.7 79 1.7 SW 15 22 8 12 1029.5 1029.5 0.0
20/07:00pm 10.7 7.6 7.2 79 1.7 SW 13 17 7 9 1029.2 1029.2 0.0
20/06:30pm 11.3 7.4 7.0 75 2.0 SSW 17 24 9 13 1028.8 1028.8 0.0
20/06:00pm 11.7 8.2 7.4 75 2.1 SW 15 20 8 11 1028.6 1028.6 0.0
20/05:30pm 12.0 7.3 7.9 76 2.0 SW 22 30 12 16 1028.2 1028.2 0.0
20/05:00pm 11.7 8.1 8.4 80 1.6 SW 17 28 9 15 1028.0 1028.0 0.0
20/04:30pm 12.6 8.7 8.5 76 2.0 SW 19 28 10 15 1027.7 1027.7 0.0
20/04:00pm 12.2 8.2 8.9 80 1.6 SW 20 28 11 15 1027.6 1027.6 0.0
20/03:30pm 13.3 9.5 9.7 79 1.8 SW 20 28 11 15 1027.3 1027.3 0.0
20/03:00pm 13.3 8.2 9.2 76 2.1 SW 26 33 14 18 1027.1 1027.1 0.0
20/02:30pm 13.5 8.5 9.7 78 1.9 SW 26 30 14 16 1027.1 1027.1 0.0
20/02:00pm 14.2 9.4 10.2 77 2.1 SSW 26 35 14 19 1026.8 1026.8 0.0
20/01:30pm 14.2 9.4 10.2 77 2.1 SW 26 33 14 18 1026.8 1026.8 0.0
20/01:00pm 14.6 10.4 11.0 79 1.9 SW 24 32 13 17 1026.9 1026.9 0.0
20/12:30pm 13.7 9.0 9.2 74 2.3 SW 24 32 13 17 1026.9 1026.9 0.0
20/12:00pm 14.9 10.5 10.3 74 2.4 SW 24 30 13 16 1027.0 1027.0 0.0
20/11:30am 13.9 9.3 9.5 75 2.3 SW 24 30 13 16 1027.0 1027.0 0.0
20/11:00am 13.2 8.5 9.1 76 2.1 SW 24 33 13 18 1027.2 1027.2 0.0
20/10:30am 14.1 9.6 9.9 76 2.2 SW 24 30 13 16 1027.1 1027.1 0.0
20/10:00am 14.5 10.2 10.9 79 1.9 SW 24 32 13 17 1027.2 1027.2 0.0
20/09:30am 13.8 8.6 10.2 79 1.9 SW 28 33 15 18 1027.1 1027.1 0.0
20/09:00am 13.7 8.5 10.3 80 1.8 SW 28 37 15 20 1026.9 1026.9 0.4
20/08:30am 13.2 8.3 9.8 80 1.7 SSW 26 32 14 17 1026.6 1026.6 0.4
20/08:00am 12.8 7.8 9.6 81 1.6 SSW 26 30 14 16 1026.6 1026.6 0.4
20/07:30am 12.7 8.5 9.9 83 1.4 SSW 22 28 12 15 1026.2 1026.2 0.4
20/07:00am 11.6 7.3 9.2 85 1.2 SSW 22 30 12 16 1025.9 1025.9 0.4
20/06:30am 11.1 8.1 9.2 88 0.9 SSW 15 22 8 12 1025.5 1025.5 0.4
20/06:00am 10.7 6.8 8.6 87 1.0 SW 19 24 10 13 1025.1 1025.1 0.4
20/05:30am 10.3 6.7 8.4 88 0.9 SW 17 22 9 12 1024.7 1024.7 0.4
20/05:00am 10.9 6.6 9.3 90 0.8 SW 22 26 12 14 1024.3 1024.3 0.4
20/04:30am 10.2 6.7 8.8 91 0.7 WSW 17 22 9 12 1024.1 1024.1 0.4
20/04:00am 10.7 7.3 9.1 90 0.8 WSW 17 24 9 13 1023.8 1023.8 0.4
20/03:30am 10.7 6.9 9.1 90 0.8 WSW 19 24 10 13 1023.9 1023.9 0.4
20/03:00am 10.6 6.8 9.2 91 0.7 W 19 24 10 13 1023.7 1023.7 0.4
20/02:30am 10.4 6.5 8.8 90 0.8 WSW 19 28 10 15 1023.8 1023.8 0.4
20/02:00am 10.6 6.5 8.7 88 0.9 WSW 20 26 11 14 1023.8 1023.8 0.2
20/01:30am 11.2 7.0 8.4 83 1.4 WSW 20 30 11 16 1024.0 1024.0 0.0
20/01:00am 11.2 7.0 8.4 83 1.4 WSW 20 30 11 16 1024.0 1024.0 0.0
20/12:30am 10.7 6.6 8.6 87 1.0 WSW 20 30 11 16 1024.0 1024.0 0.0
20/12:00am 10.1 6.5 8.4 89 0.8 W 17 22 9 12 1023.8 1023.8 0.0
 
Date/Time
EST
Temp
°C
App
Temp
°C
Dew
Point
Rel
Hum
%
Delta-T
°C
Wind Press
QNH
hPa
Press
MSL
hPa
Rain
since 9 am
mm
Dir
 
Spd
km/h
Gust
km/h
Spd
kts
Gust
kts
19/11:30pm 10.2 6.0 8.1 87 1.0 W 20 26 11 14 1023.9 1023.9 0.0
19/11:00pm 10.2 5.6 8.0 86 1.1 W 22 28 12 15 1024.0 1024.0 0.0
19/10:30pm 10.7 5.7 7.9 83 1.4 WSW 24 32 13 17 1024.1 1024.1 0.0
19/10:00pm 10.9 5.2 8.3 84 1.3 WSW 28 35 15 19 1024.1 1024.1 0.0
19/09:30pm 10.5 6.3 8.3 86 1.1 WSW 20 30 11 16 1024.0 1024.0 0.0
19/09:00pm 11.4 6.4 8.1 80 1.6 WSW 24 32 13 17 1024.1 1024.1 0.0
19/08:30pm 10.9 5.2 8.3 84 1.3 SW 28 37 15 20 1024.1 1024.1 0.0
19/08:00pm 11.2 7.6 8.2 82 1.5 WSW 17 22 9 12 1023.9 1023.9 0.0
19/07:30pm 11.3 5.2 8.3 82 1.5 WSW 30 39 16 21 1023.7 1023.7 0.0
19/07:00pm 11.4 6.8 8.3 81 1.5 WSW 22 30 12 16 1023.4 1023.4 0.0
19/06:30pm 11.5 6.9 8.0 79 1.7 WSW 22 30 12 16 1023.2 1023.2 0.0
19/06:00pm 11.5 5.8 8.4 81 1.5 WSW 28 37 15 20 1023.0 1023.0 0.0
19/05:30pm 12.0 7.1 8.3 78 1.8 WSW 24 33 13 18 1022.8 1022.8 0.0
19/05:00pm 12.0 6.5 7.7 75 2.1 WSW 26 33 14 18 1022.6 1022.6 0.0
19/04:30pm 12.8 6.9 7.7 71 2.5 WSW 28 37 15 20 1022.5 1022.5 0.0
19/04:00pm 13.3 8.0 8.6 73 2.3 WSW 26 35 14 19 1022.5 1022.5 0.0
19/03:30pm 13.8 8.0 7.8 67 3.0 WSW 28 43 15 23 1022.3 1022.3 0.0
19/03:00pm 13.3 7.7 8.6 73 2.3 WSW 28 35 15 19 1022.3 1022.3 0.0
19/02:30pm 13.5 8.3 9.0 74 2.3 WSW 26 35 14 19 1022.3 1022.3 0.0
19/02:00pm 13.6 8.5 9.1 74 2.3 WSW 26 33 14 18 1022.4 1022.4 0.0
19/01:30pm 13.5 8.0 9.2 75 2.2 W 28 33 15 18 1022.5 1022.5 0.0
19/01:00pm 14.3 8.5 9.3 72 2.5 WSW 30 41 16 22 1022.7 1022.7 0.0
19/12:30pm 14.0 9.9 10.0 77 2.1 WSW 22 33 12 18 1022.8 1022.8 0.0
19/12:00pm 12.9 7.6 8.4 74 2.2 W 26 37 14 20 1022.8 1022.8 0.0
19/11:30am 13.7 7.4 9.6 76 2.1 WSW 33 48 18 26 1022.9 1022.9 0.0
19/11:00am 13.7 7.6 9.6 76 2.1 WSW 32 41 17 22 1022.9 1022.9 0.0
19/10:30am 12.5 6.5 8.8 78 1.8 SW 30 43 16 23 1023.2 1023.2 0.0
19/10:00am 12.7 8.1 9.5 81 1.6 WSW 24 32 13 17 1023.1 1023.1 0.0
19/09:30am 12.6 7.7 9.8 83 1.4 WSW 26 39 14 21 1023.1 1023.1 0.0
19/09:00am 11.9 7.3 9.8 87 1.1 W 24 30 13 16 1023.1 1023.1 1.4
19/08:30am 10.3 4.3 8.6 89 0.8 WSW 30 41 16 22 1023.2 1023.2 1.4
19/08:00am 11.6 7.3 9.2 85 1.2 W 22 30 12 16 1022.8 1022.8 0.8
19/07:30am 10.8 7.3 8.9 88 0.9 W 17 22 9 12 1022.6 1022.6 0.8
19/07:00am 10.6 6.4 8.2 85 1.2 W 20 26 11 14 1022.5 1022.5 0.8
19/06:30am 10.4 6.2 8.2 86 1.1 WSW 20 32 11 17 1022.3 1022.3 0.8
19/06:00am 10.1 6.5 8.2 88 0.9 W 17 24 9 13 1021.9 1021.9 0.8
19/05:30am 9.9 5.6 8.0 88 0.9 W 20 30 11 16 1021.8 1021.8 0.8
19/05:00am 10.3 5.4 8.4 88 0.9 W 24 32 13 17 1021.6 1021.6 0.8
19/04:30am 9.9 5.7 8.3 90 0.8 WSW 20 30 11 16 1021.5 1021.5 0.8
19/04:00am 9.5 3.3 7.9 90 0.8 WSW 30 39 16 21 1021.8 1021.8 0.8
19/03:30am 9.7 3.9 7.8 88 0.9 WSW 28 39 15 21 1021.7 1021.7 0.4
19/03:00am 10.3 6.0 7.9 85 1.2 W 20 30 11 16 1021.5 1021.5 0.2
19/02:30am 10.0 6.6 7.8 86 1.1 W 15 19 8 10 1021.8 1021.8 0.2
19/02:00am 9.4 6.3 7.2 86 1.0 WNW 13 19 7 10 1021.9 1021.9 0.2
19/01:30am 9.3 5.0 7.1 86 1.0 W 19 22 10 12 1022.3 1022.3 0.2
19/01:00am 9.5 5.6 6.9 84 1.2 W 17 22 9 12 1022.3 1022.3 0.2
19/12:30am 9.9 5.6 7.2 83 1.3 W 19 33 10 18 1022.4 1022.4 0.2
19/12:00am 9.4 6.2 6.7 83 1.3 WNW 13 19 7 10 1022.4 1022.4 0.2
 
Date/Time
EST
Temp
°C
App
Temp
°C
Dew
Point
Rel
Hum
%
Delta-T
°C
Wind Press
QNH
hPa
Press
MSL
hPa
Rain
since 9 am
mm
Dir
 
Spd
km/h
Gust
km/h
Spd
kts
Gust
kts
18/11:30pm 10.0 5.0 6.3 78 1.7 W 22 28 12 15 1023.0 1023.0 0.2
18/11:00pm 10.2 5.3 5.0 70 2.3 WSW 20 32 11 17 1023.1 1023.1 0.2
18/10:30pm 10.5 5.7 4.9 68 2.5 W 19 30 10 16 1023.1 1023.1 0.2
18/10:00pm 10.6 5.2 4.7 67 2.6 WSW 22 30 12 16 1023.2 1023.2 0.2
18/09:30pm 10.2 4.1 4.8 69 2.4 WSW 26 35 14 19 1023.1 1023.1 0.2
18/09:00pm 10.1 4.2 4.0 66 2.7 SW 24 37 13 20 1023.1 1023.1 0.2
18/08:30pm 10.7 4.7 5.3 69 2.5 SW 26 35 14 19 1022.8 1022.8 0.2
18/08:00pm 10.3 4.4 5.7 73 2.1 WSW 26 35 14 19 1022.7 1022.7 0.2
18/07:30pm 10.6 5.1 5.8 72 2.2 WSW 24 37 13 20 1022.5 1022.5 0.2
18/07:00pm 10.4 3.5 4.8 68 2.5 SW 30 37 16 20 1022.5 1022.5 0.2
18/06:30pm 10.2 3.8 5.2 71 2.3 WSW 28 37 15 20 1022.3 1022.3 0.2
18/06:00pm 10.5 3.7 5.1 69 2.4 WSW 30 39 16 21 1022.2 1022.2 0.2

Other Formats:

Comma delimited format used in spreadsheet applications
http://www.bom.gov.au/fwo/IDV60801/IDV60801.94911.axf

JavaScript Object Notation format (JSON) in row-major order
http://www.bom.gov.au/fwo/IDV60801/IDV60801.94911.json